sensor_id;sensor_type;location;lat;lon;timestamp;pressure;altitude;pressure_sealevel;temperature;humidity
14343;BME280;7255;53.596;9.960;2023-04-02T00:01:38;101149.03;;;1.22;nan
14343;BME280;7255;53.596;9.960;2023-04-02T00:04:16;101139.09;;;1.15;nan
14343;BME280;7255;53.596;9.960;2023-04-02T00:06:49;101144.69;;;1.12;nan
14343;BME280;7255;53.596;9.960;2023-04-02T00:09:36;101143.22;;;1.18;nan
14343;BME280;7255;53.596;9.960;2023-04-02T00:12:17;101175.81;;;1.19;nan
14343;BME280;7255;53.596;9.960;2023-04-02T00:14:46;101146.03;;;1.17;nan
14343;BME280;7255;53.596;9.960;2023-04-02T00:17:13;101170.22;;;1.22;nan
14343;BME280;7255;53.596;9.960;2023-04-02T00:19:44;101165.22;;;1.19;nan
14343;BME280;7255;53.596;9.960;2023-04-02T00:22:16;101172.19;;;1.20;nan
14343;BME280;7255;53.596;9.960;2023-04-02T00:24:42;101183.59;;;1.20;nan
14343;BME280;7255;53.596;9.960;2023-04-02T00:27:11;101178.09;;;1.13;nan
14343;BME280;7255;53.596;9.960;2023-04-02T00:29:44;101165.56;;;1.15;nan
14343;BME280;7255;53.596;9.960;2023-04-02T00:32:16;101188.91;;;1.20;nan
14343;BME280;7255;53.596;9.960;2023-04-02T00:34:44;101187.25;;;1.19;nan
14343;BME280;7255;53.596;9.960;2023-04-02T00:37:15;101188.12;;;1.10;nan
14343;BME280;7255;53.596;9.960;2023-04-02T00:39:49;101123.50;;;1.12;nan
14343;BME280;7255;53.596;9.960;2023-04-02T00:42:17;101187.31;;;1.09;nan
14343;BME280;7255;53.596;9.960;2023-04-02T00:44:44;101185.87;;;1.15;nan
14343;BME280;7255;53.596;9.960;2023-04-02T00:47:15;101205.69;;;1.11;nan
14343;BME280;7255;53.596;9.960;2023-04-02T00:49:44;101202.81;;;1.22;nan
14343;BME280;7255;53.596;9.960;2023-04-02T00:52:14;101218.41;;;1.25;nan
14343;BME280;7255;53.596;9.960;2023-04-02T00:54:44;101219.84;;;1.20;nan
14343;BME280;7255;53.596;9.960;2023-04-02T00:57:14;101221.81;;;1.18;nan
14343;BME280;7255;53.596;9.960;2023-04-02T00:59:49;101179.47;;;1.18;nan
14343;BME280;7255;53.596;9.960;2023-04-02T01:02:25;101231.25;;;1.20;nan
14343;BME280;7255;53.596;9.960;2023-04-02T01:04:54;101240.72;;;1.23;nan
14343;BME280;7255;53.596;9.960;2023-04-02T01:07:31;101244.34;;;1.22;nan
14343;BME280;7255;53.596;9.960;2023-04-02T01:12:59;101252.16;;;1.23;nan
14343;BME280;7255;53.596;9.960;2023-04-02T01:15:36;101259.94;;;1.25;nan
14343;BME280;7255;53.596;9.960;2023-04-02T01:18:29;101259.41;;;1.21;nan
14343;BME280;7255;53.596;9.960;2023-04-02T01:21:08;101243.53;;;1.21;nan
14343;BME280;7255;53.596;9.960;2023-04-02T01:23:50;101250.19;;;1.25;nan
14343;BME280;7255;53.596;9.960;2023-04-02T01:26:26;101273.53;;;1.30;nan
14343;BME280;7255;53.596;9.960;2023-04-02T01:29:02;101271.59;;;1.32;nan
14343;BME280;7255;53.596;9.960;2023-04-02T01:31:31;101285.53;;;1.34;nan
14343;BME280;7255;53.596;9.960;2023-04-02T01:33:59;101265.69;;;1.38;nan
14343;BME280;7255;53.596;9.960;2023-04-02T01:36:33;101290.81;;;1.34;nan
14343;BME280;7255;53.596;9.960;2023-04-02T01:39:07;101285.19;;;1.37;nan
14343;BME280;7255;53.596;9.960;2023-04-02T01:41:41;101289.12;;;1.33;nan
14343;BME280;7255;53.596;9.960;2023-04-02T01:44:14;101305.03;;;1.33;nan
14343;BME280;7255;53.596;9.960;2023-04-02T01:46:47;101372.22;;;1.32;nan
14343;BME280;7255;53.596;9.960;2023-04-02T01:49:17;101304.19;;;1.32;nan
14343;BME280;7255;53.596;9.960;2023-04-02T01:51:50;101291.41;;;1.28;nan
14343;BME280;7255;53.596;9.960;2023-04-02T01:54:18;101306.16;;;1.30;nan
14343;BME280;7255;53.596;9.960;2023-04-02T01:56:45;101334.00;;;1.34;nan
14343;BME280;7255;53.596;9.960;2023-04-02T01:59:15;101313.97;;;1.32;nan
14343;BME280;7255;53.596;9.960;2023-04-02T02:01:44;101319.84;;;1.26;nan
14343;BME280;7255;53.596;9.960;2023-04-02T02:04:14;101319.00;;;1.25;nan
14343;BME280;7255;53.596;9.960;2023-04-02T02:06:41;101323.78;;;1.22;nan
14343;BME280;7255;53.596;9.960;2023-04-02T02:09:11;101382.56;;;1.25;nan
14343;BME280;7255;53.596;9.960;2023-04-02T02:11:40;101345.75;;;1.32;nan
14343;BME280;7255;53.596;9.960;2023-04-02T02:14:11;101351.31;;;1.29;nan
14343;BME280;7255;53.596;9.960;2023-04-02T02:16:39;101356.34;;;1.32;nan
14343;BME280;7255;53.596;9.960;2023-04-02T02:19:18;101348.56;;;1.21;nan
14343;BME280;7255;53.596;9.960;2023-04-02T02:21:48;101338.84;;;1.21;nan
14343;BME280;7255;53.596;9.960;2023-04-02T02:24:19;101337.75;;;1.14;nan
14343;BME280;7255;53.596;9.960;2023-04-02T02:26:49;101342.78;;;1.07;nan
14343;BME280;7255;53.596;9.960;2023-04-02T02:29:17;101361.72;;;1.12;nan
14343;BME280;7255;53.596;9.960;2023-04-02T02:31:51;101355.06;;;1.08;nan
14343;BME280;7255;53.596;9.960;2023-04-02T02:34:22;101357.78;;;1.17;nan
14343;BME280;7255;53.596;9.960;2023-04-02T02:36:52;101361.72;;;1.12;nan
14343;BME280;7255;53.596;9.960;2023-04-02T02:39:23;101365.06;;;1.14;nan
14343;BME280;7255;53.596;9.960;2023-04-02T02:41:54;101367.31;;;1.09;nan
14343;BME280;7255;53.596;9.960;2023-04-02T02:44:23;101370.09;;;1.08;nan
14343;BME280;7255;53.596;9.960;2023-04-02T02:46:55;101378.19;;;1.06;nan
14343;BME280;7255;53.596;9.960;2023-04-02T02:49:25;101387.09;;;1.05;nan
14343;BME280;7255;53.596;9.960;2023-04-02T02:51:57;101390.44;;;1.07;nan
14343;BME280;7255;53.596;9.960;2023-04-02T02:54:25;101362.34;;;0.96;nan
14343;BME280;7255;53.596;9.960;2023-04-02T02:56:55;101410.53;;;1.00;nan
14343;BME280;7255;53.596;9.960;2023-04-02T02:59:23;101403.59;;;0.99;nan
14343;BME280;7255;53.596;9.960;2023-04-02T03:01:49;101407.19;;;0.98;nan
14343;BME280;7255;53.596;9.960;2023-04-02T03:04:20;101411.41;;;0.91;nan
14343;BME280;7255;53.596;9.960;2023-04-02T03:06:49;101405.00;;;0.93;nan
14343;BME280;7255;53.596;9.960;2023-04-02T03:09:21;101413.91;;;0.92;nan
14343;BME280;7255;53.596;9.960;2023-04-02T03:11:52;101413.91;;;0.92;nan
14343;BME280;7255;53.596;9.960;2023-04-02T03:14:25;101423.13;;;0.88;nan
14343;BME280;7255;53.596;9.960;2023-04-02T03:16:58;101422.28;;;0.78;nan
14343;BME280;7255;53.596;9.960;2023-04-02T03:19:30;101437.06;;;0.81;nan
14343;BME280;7255;53.596;9.960;2023-04-02T03:22:03;101421.72;;;0.84;nan
14343;BME280;7255;53.596;9.960;2023-04-02T03:24:35;101424.22;;;0.86;nan
14343;BME280;7255;53.596;9.960;2023-04-02T03:27:07;101448.72;;;0.88;nan
14343;BME280;7255;53.596;9.960;2023-04-02T03:29:39;101403.06;;;0.86;nan
14343;BME280;7255;53.596;9.960;2023-04-02T03:32:11;101453.72;;;0.91;nan
14343;BME280;7255;53.596;9.960;2023-04-02T03:34:46;101466.25;;;0.99;nan
14343;BME280;7255;53.596;9.960;2023-04-02T03:37:18;101470.66;;;1.08;nan
14343;BME280;7255;53.596;9.960;2023-04-02T03:39:50;101473.19;;;1.09;nan
14343;BME280;7255;53.596;9.960;2023-04-02T03:42:20;101485.41;;;1.20;nan
14343;BME280;7255;53.596;9.960;2023-04-02T03:44:51;101479.25;;;1.29;nan
14343;BME280;7255;53.596;9.960;2023-04-02T03:47:29;101489.56;;;1.23;nan
14343;BME280;7255;53.596;9.960;2023-04-02T03:50:00;101496.00;;;1.20;nan
14343;BME280;7255;53.596;9.960;2023-04-02T03:52:29;101473.34;;;1.35;nan
14343;BME280;7255;53.596;9.960;2023-04-02T03:54:58;101501.78;;;1.33;nan
14343;BME280;7255;53.596;9.960;2023-04-02T03:57:30;101487.53;;;1.44;nan
14343;BME280;7255;53.596;9.960;2023-04-02T04:00:03;101524.06;;;1.50;nan
14343;BME280;7255;53.596;9.960;2023-04-02T04:02:39;101520.69;;;1.48;nan
14343;BME280;7255;53.596;9.960;2023-04-02T04:05:20;101526.00;;;1.48;nan
14343;BME280;7255;53.596;9.960;2023-04-02T04:07:50;101538.84;;;1.43;nan
14343;BME280;7255;53.596;9.960;2023-04-02T04:10:22;101531.87;;;1.42;nan
14343;BME280;7255;53.596;9.960;2023-04-02T04:12:51;101550.56;;;1.41;nan
14343;BME280;7255;53.596;9.960;2023-04-02T04:15:21;101554.16;;;1.49;nan
14343;BME280;7255;53.596;9.960;2023-04-02T04:17:54;101548.03;;;1.39;nan
14343;BME280;7255;53.596;9.960;2023-04-02T04:20:30;101560.38;;;1.30;nan
14343;BME280;7255;53.596;9.960;2023-04-02T04:23:08;101562.56;;;1.35;nan
14343;BME280;7255;53.596;9.960;2023-04-02T04:25:35;101550.59;;;1.31;nan
14343;BME280;7255;53.596;9.960;2023-04-02T04:28:09;101563.97;;;1.29;nan
14343;BME280;7255;53.596;9.960;2023-04-02T04:30:47;101567.06;;;1.25;nan
14343;BME280;7255;53.596;9.960;2023-04-02T04:33:18;101573.22;;;1.15;nan
14343;BME280;7255;53.596;9.960;2023-04-02T04:35:50;101567.06;;;1.15;nan
14343;BME280;7255;53.596;9.960;2023-04-02T04:38:20;101563.19;;;1.19;nan
14343;BME280;7255;53.596;9.960;2023-04-02T04:40:54;101506.84;;;1.27;nan
14343;BME280;7255;53.596;9.960;2023-04-02T04:43:29;101582.69;;;1.08;nan
14343;BME280;7255;53.596;9.960;2023-04-02T04:46:01;101558.19;;;1.06;nan
14343;BME280;7255;53.596;9.960;2023-04-02T04:48:33;101587.13;;;1.08;nan
14343;BME280;7255;53.596;9.960;2023-04-02T04:51:07;101599.13;;;1.02;nan
14343;BME280;7255;53.596;9.960;2023-04-02T04:53:45;101600.81;;;1.03;nan
14343;BME280;7255;53.596;9.960;2023-04-02T04:56:12;101598.00;;;1.14;nan
14343;BME280;7255;53.596;9.960;2023-04-02T04:58:45;101614.19;;;1.21;nan
14343;BME280;7255;53.596;9.960;2023-04-02T05:01:18;101616.09;;;1.29;nan
14343;BME280;7255;53.596;9.960;2023-04-02T05:03:50;101623.59;;;1.33;nan
14343;BME280;7255;53.596;9.960;2023-04-02T05:06:24;101624.44;;;1.44;nan
14343;BME280;7255;53.596;9.960;2023-04-02T05:09:00;101650.06;;;1.53;nan
14343;BME280;7255;53.596;9.960;2023-04-02T05:11:31;101652.31;;;1.58;nan
14343;BME280;7255;53.596;9.960;2023-04-02T05:14:00;101660.09;;;1.69;nan
14343;BME280;7255;53.596;9.960;2023-04-02T05:16:32;101654.78;;;1.69;nan
14343;BME280;7255;53.596;9.960;2023-04-02T05:19:05;101659.78;;;1.72;nan
14343;BME280;7255;53.596;9.960;2023-04-02T05:21:40;101678.72;;;1.77;nan
14343;BME280;7255;53.596;9.960;2023-04-02T05:24:27;101684.84;;;1.87;nan
14343;BME280;7255;53.596;9.960;2023-04-02T05:27:00;101687.37;;;1.89;nan
14343;BME280;7255;53.596;9.960;2023-04-02T05:29:30;101678.13;;;1.93;nan
14343;BME280;7255;53.596;9.960;2023-04-02T05:32:03;101700.44;;;2.00;nan
14343;BME280;7255;53.596;9.960;2023-04-02T05:34:34;101696.78;;;2.11;nan
14343;BME280;7255;53.596;9.960;2023-04-02T05:37:04;101652.88;;;2.26;nan
14343;BME280;7255;53.596;9.960;2023-04-02T05:39:30;101713.12;;;2.34;nan
14343;BME280;7255;53.596;9.960;2023-04-02T05:42:00;101712.84;;;2.37;nan
14343;BME280;7255;53.596;9.960;2023-04-02T05:44:30;101724.84;;;2.41;nan
14343;BME280;7255;53.596;9.960;2023-04-02T05:47:00;101733.75;;;2.50;nan
14343;BME280;7255;53.596;9.960;2023-04-02T05:49:32;101728.91;;;2.63;nan
14343;BME280;7255;53.596;9.960;2023-04-02T05:52:02;101738.09;;;2.69;nan
14343;BME280;7255;53.596;9.960;2023-04-02T05:54:33;101719.38;;;2.70;nan
14343;BME280;7255;53.596;9.960;2023-04-02T05:57:06;101738.59;;;2.82;nan
14343;BME280;7255;53.596;9.960;2023-04-02T05:59:37;101745.53;;;2.93;nan
14343;BME280;7255;53.596;9.960;2023-04-02T06:02:09;101738.47;;;3.02;nan
14343;BME280;7255;53.596;9.960;2023-04-02T06:04:45;101755.63;;;2.89;nan
14343;BME280;7255;53.596;9.960;2023-04-02T06:07:17;101751.34;;;2.97;nan
14343;BME280;7255;53.596;9.960;2023-04-02T06:09:49;101759.41;;;3.05;nan
14343;BME280;7255;53.596;9.960;2023-04-02T06:12:25;101775.59;;;3.12;nan
14343;BME280;7255;53.596;9.960;2023-04-02T06:14:54;101772.56;;;3.06;nan
14343;BME280;7255;53.596;9.960;2023-04-02T06:17:20;101774.00;;;3.01;nan
14343;BME280;7255;53.596;9.960;2023-04-02T06:19:48;101766.63;;;3.13;nan
14343;BME280;7255;53.596;9.960;2023-04-02T06:22:19;101795.63;;;3.24;nan
14343;BME280;7255;53.596;9.960;2023-04-02T06:24:54;101801.44;;;3.37;nan
14343;BME280;7255;53.596;9.960;2023-04-02T06:27:24;101793.97;;;3.23;nan
14343;BME280;7255;53.596;9.960;2023-04-02T06:29:54;101800.34;;;3.30;nan
14343;BME280;7255;53.596;9.960;2023-04-02T06:32:23;101798.97;;;3.26;nan
14343;BME280;7255;53.596;9.960;2023-04-02T06:34:51;101810.13;;;3.30;nan
14343;BME280;7255;53.596;9.960;2023-04-02T06:37:25;101807.31;;;3.31;nan
14343;BME280;7255;53.596;9.960;2023-04-02T06:39:56;101794.44;;;3.36;nan
14343;BME280;7255;53.596;9.960;2023-04-02T06:42:25;101824.03;;;3.41;nan
14343;BME280;7255;53.596;9.960;2023-04-02T06:44:53;101818.72;;;3.41;nan
14343;BME280;7255;53.596;9.960;2023-04-02T06:47:28;101839.09;;;3.51;nan
14343;BME280;7255;53.596;9.960;2023-04-02T06:50:00;101836.84;;;3.46;nan
14343;BME280;7255;53.596;9.960;2023-04-02T06:52:32;101835.22;;;3.45;nan
14343;BME280;7255;53.596;9.960;2023-04-02T06:55:14;101838.25;;;3.50;nan
14343;BME280;7255;53.596;9.960;2023-04-02T06:57:46;101841.81;;;3.59;nan
14343;BME280;7255;53.596;9.960;2023-04-02T07:00:23;101855.19;;;3.67;nan
14343;BME280;7255;53.596;9.960;2023-04-02T07:02:51;101841.97;;;3.75;nan
14343;BME280;7255;53.596;9.960;2023-04-02T07:05:18;101860.13;;;3.80;nan
14343;BME280;7255;53.596;9.960;2023-04-02T07:07:44;101883.19;;;3.97;nan
14343;BME280;7255;53.596;9.960;2023-04-02T07:10:12;101885.56;;;4.18;nan
14343;BME280;7255;53.596;9.960;2023-04-02T07:12:39;101880.53;;;4.15;nan
14343;BME280;7255;53.596;9.960;2023-04-02T07:15:06;101876.28;;;4.22;nan
14343;BME280;7255;53.596;9.960;2023-04-02T07:17:32;101907.38;;;4.22;nan
14343;BME280;7255;53.596;9.960;2023-04-02T07:19:59;101883.88;;;4.17;nan
14343;BME280;7255;53.596;9.960;2023-04-02T07:22:25;101888.59;;;4.23;nan
14343;BME280;7255;53.596;9.960;2023-04-02T07:24:51;101896.31;;;4.35;nan
14343;BME280;7255;53.596;9.960;2023-04-02T07:27:19;101907.09;;;4.51;nan
14343;BME280;7255;53.596;9.960;2023-04-02T07:29:45;101899.56;;;4.47;nan
14343;BME280;7255;53.596;9.960;2023-04-02T07:32:12;101920.66;;;4.40;nan
14343;BME280;7255;53.596;9.960;2023-04-02T07:34:39;101914.81;;;4.36;nan
14343;BME280;7255;53.596;9.960;2023-04-02T07:37:06;101921.59;;;4.31;nan
14343;BME280;7255;53.596;9.960;2023-04-02T07:39:33;101925.84;;;4.23;nan
14343;BME280;7255;53.596;9.960;2023-04-02T07:42:00;101929.28;;;4.16;nan
14343;BME280;7255;53.596;9.960;2023-04-02T07:44:28;101929.47;;;4.22;nan
14343;BME280;7255;53.596;9.960;2023-04-02T07:46:55;101939.19;;;4.32;nan
14343;BME280;7255;53.596;9.960;2023-04-02T07:49:21;101941.19;;;4.30;nan
14343;BME280;7255;53.596;9.960;2023-04-02T07:51:48;101932.94;;;4.41;nan
14343;BME280;7255;53.596;9.960;2023-04-02T07:54:16;101960.62;;;4.48;nan
14343;BME280;7255;53.596;9.960;2023-04-02T07:56:42;101955.31;;;4.74;nan
14343;BME280;7255;53.596;9.960;2023-04-02T07:59:08;101975.91;;;4.90;nan
14343;BME280;7255;53.596;9.960;2023-04-02T08:01:36;101979.16;;;5.02;nan
14343;BME280;7255;53.596;9.960;2023-04-02T08:04:04;101970.97;;;5.04;nan
14343;BME280;7255;53.596;9.960;2023-04-02T08:06:31;101990.00;;;5.09;nan
14343;BME280;7255;53.596;9.960;2023-04-02T08:08:58;101994.38;;;5.18;nan
14343;BME280;7255;53.596;9.960;2023-04-02T08:11:24;102000.34;;;5.12;nan
14343;BME280;7255;53.596;9.960;2023-04-02T08:13:51;101992.00;;;5.07;nan
14343;BME280;7255;53.596;9.960;2023-04-02T08:16:17;102021.25;;;4.98;nan
14343;BME280;7255;53.596;9.960;2023-04-02T08:18:45;102003.59;;;4.97;nan
14343;BME280;7255;53.596;9.960;2023-04-02T08:21:11;101997.09;;;5.00;nan
14343;BME280;7255;53.596;9.960;2023-04-02T08:23:38;102017.28;;;5.03;nan
14343;BME280;7255;53.596;9.960;2023-04-02T08:26:05;102019.03;;;4.94;nan
14343;BME280;7255;53.596;9.960;2023-04-02T08:28:32;102022.59;;;5.03;nan
14343;BME280;7255;53.596;9.960;2023-04-02T08:30:58;102028.34;;;5.16;nan
14343;BME280;7255;53.596;9.960;2023-04-02T08:33:25;102034.28;;;5.36;nan
14343;BME280;7255;53.596;9.960;2023-04-02T08:35:53;102034.81;;;5.39;nan
14343;BME280;7255;53.596;9.960;2023-04-02T08:38:21;102061.59;;;5.30;nan
14343;BME280;7255;53.596;9.960;2023-04-02T08:40:50;102026.16;;;5.37;nan
14343;BME280;7255;53.596;9.960;2023-04-02T08:43:29;102042.53;;;5.51;nan
14343;BME280;7255;53.596;9.960;2023-04-02T08:46:05;102050.66;;;5.75;nan
14343;BME280;7255;53.596;9.960;2023-04-02T08:48:33;102051.34;;;5.86;nan
14343;BME280;7255;53.596;9.960;2023-04-02T08:51:04;102058.06;;;5.90;nan
14343;BME280;7255;53.596;9.960;2023-04-02T08:53:33;102053.47;;;5.74;nan
14343;BME280;7255;53.596;9.960;2023-04-02T08:56:05;102070.84;;;5.78;nan
14343;BME280;7255;53.596;9.960;2023-04-02T08:58:38;102070.53;;;5.81;nan
14343;BME280;7255;53.596;9.960;2023-04-02T09:01:10;102065.62;;;5.68;nan
14343;BME280;7255;53.596;9.960;2023-04-02T09:03:44;102063.75;;;5.34;nan
14343;BME280;7255;53.596;9.960;2023-04-02T09:06:14;102066.47;;;5.16;nan
14343;BME280;7255;53.596;9.960;2023-04-02T09:08:42;102078.00;;;5.17;nan
14343;BME280;7255;53.596;9.960;2023-04-02T09:11:14;102076.31;;;5.16;nan
14343;BME280;7255;53.596;9.960;2023-04-02T09:13:45;102096.59;;;5.35;nan
14343;BME280;7255;53.596;9.960;2023-04-02T09:16:14;102101.09;;;5.61;nan
14343;BME280;7255;53.596;9.960;2023-04-02T09:18:41;102102.31;;;5.74;nan
14343;BME280;7255;53.596;9.960;2023-04-02T09:21:30;102153.19;;;5.99;nan
14343;BME280;7255;53.596;9.960;2023-04-02T09:23:58;102119.94;;;6.44;nan
14343;BME280;7255;53.596;9.960;2023-04-02T09:26:26;102132.66;;;6.59;nan
14343;BME280;7255;53.596;9.960;2023-04-02T09:29:00;102121.81;;;6.52;nan
14343;BME280;7255;53.596;9.960;2023-04-02T09:31:30;102129.50;;;6.47;nan
14343;BME280;7255;53.596;9.960;2023-04-02T09:33:59;102124.28;;;6.37;nan
14343;BME280;7255;53.596;9.960;2023-04-02T09:36:32;102136.44;;;6.31;nan
14343;BME280;7255;53.596;9.960;2023-04-02T09:39:02;102127.91;;;6.20;nan
14343;BME280;7255;53.596;9.960;2023-04-02T09:41:32;102144.28;;;6.33;nan
14343;BME280;7255;53.596;9.960;2023-04-02T09:44:27;102151.81;;;6.38;nan
14343;BME280;7255;53.596;9.960;2023-04-02T09:46:55;102139.97;;;6.40;nan
14343;BME280;7255;53.596;9.960;2023-04-02T09:49:25;102145.88;;;6.60;nan
14343;BME280;7255;53.596;9.960;2023-04-02T09:52:26;102148.37;;;6.62;nan
14343;BME280;7255;53.596;9.960;2023-04-02T09:55:17;102165.75;;;6.66;nan
14343;BME280;7255;53.596;9.960;2023-04-02T09:57:46;102170.81;;;6.85;nan
14343;BME280;7255;53.596;9.960;2023-04-02T10:00:18;102172.09;;;6.73;nan
14343;BME280;7255;53.596;9.960;2023-04-02T10:02:59;102168.09;;;6.77;nan
14343;BME280;7255;53.596;9.960;2023-04-02T10:05:26;102170.94;;;6.75;nan
14343;BME280;7255;53.596;9.960;2023-04-02T10:08:04;102169.03;;;6.51;nan
14343;BME280;7255;53.596;9.960;2023-04-02T10:10:35;102170.38;;;6.55;nan
14343;BME280;7255;53.596;9.960;2023-04-02T10:13:06;102163.22;;;6.64;nan
14343;BME280;7255;53.596;9.960;2023-04-02T10:15:36;102184.44;;;6.74;nan
14343;BME280;7255;53.596;9.960;2023-04-02T10:18:11;102193.19;;;6.92;nan
14343;BME280;7255;53.596;9.960;2023-04-02T10:20:40;102186.13;;;6.75;nan
14343;BME280;7255;53.596;9.960;2023-04-02T10:23:14;102186.78;;;6.69;nan
14343;BME280;7255;53.596;9.960;2023-04-02T10:25:46;102182.97;;;6.80;nan
14343;BME280;7255;53.596;9.960;2023-04-02T10:28:38;102216.06;;;7.03;nan
14343;BME280;7255;53.596;9.960;2023-04-02T10:31:13;102278.50;;;6.86;nan
14343;BME280;7255;53.596;9.960;2023-04-02T10:33:44;102208.88;;;6.96;nan
14343;BME280;7255;53.596;9.960;2023-04-02T10:36:22;102224.09;;;6.95;nan
14343;BME280;7255;53.596;9.960;2023-04-02T10:38:58;102224.94;;;7.28;nan
14343;BME280;7255;53.596;9.960;2023-04-02T10:41:30;102232.81;;;7.63;nan
14343;BME280;7255;53.596;9.960;2023-04-02T10:44:14;102232.12;;;7.36;nan
14343;BME280;7255;53.596;9.960;2023-04-02T10:46:49;102239.16;;;7.21;nan
14343;BME280;7255;53.596;9.960;2023-04-02T10:49:23;102225.06;;;6.86;nan
14343;BME280;7255;53.596;9.960;2023-04-02T10:51:57;102235.38;;;6.72;nan
14343;BME280;7255;53.596;9.960;2023-04-02T10:54:40;102249.78;;;6.88;nan
14343;BME280;7255;53.596;9.960;2023-04-02T10:57:13;102263.03;;;7.06;nan
14343;BME280;7255;53.596;9.960;2023-04-02T10:59:46;102257.00;;;7.12;nan
14343;BME280;7255;53.596;9.960;2023-04-02T11:02:26;102273.09;;;7.28;nan
14343;BME280;7255;53.596;9.960;2023-04-02T11:04:57;102261.06;;;7.41;nan
14343;BME280;7255;53.596;9.960;2023-04-02T11:07:27;102276.44;;;7.63;nan
14343;BME280;7255;53.596;9.960;2023-04-02T11:09:57;102293.66;;;7.94;nan
14343;BME280;7255;53.596;9.960;2023-04-02T11:12:30;102286.50;;;7.86;nan
14343;BME280;7255;53.596;9.960;2023-04-02T11:14:59;102280.47;;;7.59;nan
14343;BME280;7255;53.596;9.960;2023-04-02T11:17:27;102287.13;;;7.47;nan
14343;BME280;7255;53.596;9.960;2023-04-02T11:19:53;102284.75;;;7.19;nan
14343;BME280;7255;53.596;9.960;2023-04-02T11:22:21;102290.78;;;7.13;nan
14343;BME280;7255;53.596;9.960;2023-04-02T11:24:49;102276.41;;;7.14;nan
14343;BME280;7255;53.596;9.960;2023-04-02T11:27:23;102287.78;;;7.24;nan
14343;BME280;7255;53.596;9.960;2023-04-02T11:29:52;102284.78;;;7.36;nan
14343;BME280;7255;53.596;9.960;2023-04-02T11:32:27;102292.97;;;7.34;nan
14343;BME280;7255;53.596;9.960;2023-04-02T11:37:58;102294.91;;;6.99;nan
14343;BME280;7255;53.596;9.960;2023-04-02T11:40:47;102296.44;;;7.10;nan
14343;BME280;7255;53.596;9.960;2023-04-02T11:43:50;102299.16;;;7.18;nan
14343;BME280;7255;53.596;9.960;2023-04-02T11:51:59;102315.03;;;7.28;nan
14343;BME280;7255;53.596;9.960;2023-04-02T11:54:28;102317.87;;;7.26;nan
14343;BME280;7255;53.596;9.960;2023-04-02T11:57:01;102318.06;;;7.33;nan
14343;BME280;7255;53.596;9.960;2023-04-02T11:59:39;102324.91;;;7.27;nan
14343;BME280;7255;53.596;9.960;2023-04-02T12:02:15;102328.59;;;7.43;nan
14343;BME280;7255;53.596;9.960;2023-04-02T12:04:57;102336.16;;;7.47;nan
14343;BME280;7255;53.596;9.960;2023-04-02T12:07:36;102335.75;;;7.34;nan
14343;BME280;7255;53.596;9.960;2023-04-02T12:10:18;102342.25;;;7.15;nan
14343;BME280;7255;53.596;9.960;2023-04-02T12:12:45;102342.91;;;7.09;nan
14343;BME280;7255;53.596;9.960;2023-04-02T12:23:03;102359.50;;;7.45;nan
14343;BME280;7255;53.596;9.960;2023-04-02T12:25:31;102363.03;;;7.54;nan
14343;BME280;7255;53.596;9.960;2023-04-02T12:28:03;102368.91;;;7.58;nan
14343;BME280;7255;53.596;9.960;2023-04-02T12:30:30;102368.38;;;7.38;nan
14343;BME280;7255;53.596;9.960;2023-04-02T12:33:14;102373.75;;;7.54;nan
14343;BME280;7255;53.596;9.960;2023-04-02T12:35:41;102366.06;;;7.59;nan
14343;BME280;7255;53.596;9.960;2023-04-02T12:38:18;102375.09;;;7.75;nan
14343;BME280;7255;53.596;9.960;2023-04-02T12:40:50;102387.84;;;8.05;nan
14343;BME280;7255;53.596;9.960;2023-04-02T12:43:22;102388.53;;;8.16;nan
14343;BME280;7255;53.596;9.960;2023-04-02T12:45:51;102381.47;;;8.31;nan
14343;BME280;7255;53.596;9.960;2023-04-02T12:48:19;102384.69;;;8.43;nan
14343;BME280;7255;53.596;9.960;2023-04-02T12:50:46;102386.81;;;8.64;nan
14343;BME280;7255;53.596;9.960;2023-04-02T12:53:21;102375.47;;;8.04;nan
14343;BME280;7255;53.596;9.960;2023-04-02T12:55:50;102389.19;;;8.09;nan
14343;BME280;7255;53.596;9.960;2023-04-02T12:58:24;102381.84;;;7.95;nan
14343;BME280;7255;53.596;9.960;2023-04-02T13:00:52;102388.50;;;8.32;nan
14343;BME280;7255;53.596;9.960;2023-04-02T13:03:34;102396.72;;;8.47;nan
14343;BME280;7255;53.596;9.960;2023-04-02T13:06:01;102403.06;;;8.54;nan
14343;BME280;7255;53.596;9.960;2023-04-02T13:08:30;102388.34;;;8.25;nan
14343;BME280;7255;53.596;9.960;2023-04-02T13:11:03;102400.56;;;8.20;nan
14343;BME280;7255;53.596;9.960;2023-04-02T13:13:32;102402.06;;;8.14;nan
14343;BME280;7255;53.596;9.960;2023-04-02T13:16:05;102397.22;;;8.01;nan
14343;BME280;7255;53.596;9.960;2023-04-02T13:18:36;102400.75;;;7.94;nan
14343;BME280;7255;53.596;9.960;2023-04-02T13:21:04;102388.81;;;7.63;nan
14343;BME280;7255;53.596;9.960;2023-04-02T13:23:33;102413.09;;;7.95;nan
14343;BME280;7255;53.596;9.960;2023-04-02T13:26:01;102417.13;;;8.23;nan
14343;BME280;7255;53.596;9.960;2023-04-02T13:28:34;102424.00;;;8.51;nan
14343;BME280;7255;53.596;9.960;2023-04-02T13:31:01;102429.00;;;8.70;nan
14343;BME280;7255;53.596;9.960;2023-04-02T13:33:27;102419.66;;;8.08;nan
14343;BME280;7255;53.596;9.960;2023-04-02T13:35:55;102416.63;;;8.03;nan
14343;BME280;7255;53.596;9.960;2023-04-02T13:38:21;102415.28;;;7.99;nan
14343;BME280;7255;53.596;9.960;2023-04-02T13:40:47;102412.28;;;8.27;nan
14343;BME280;7255;53.596;9.960;2023-04-02T13:43:17;102402.25;;;8.21;nan
14343;BME280;7255;53.596;9.960;2023-04-02T13:45:47;102406.75;;;8.04;nan
14343;BME280;7255;53.596;9.960;2023-04-02T13:48:15;102403.91;;;7.89;nan
14343;BME280;7255;53.596;9.960;2023-04-02T13:50:42;102404.25;;;7.86;nan
14343;BME280;7255;53.596;9.960;2023-04-02T13:53:17;102415.12;;;7.93;nan
14343;BME280;7255;53.596;9.960;2023-04-02T13:55:47;102422.66;;;8.14;nan
14343;BME280;7255;53.596;9.960;2023-04-02T13:58:13;102421.47;;;8.00;nan
14343;BME280;7255;53.596;9.960;2023-04-02T14:00:40;102422.16;;;8.10;nan
14343;BME280;7255;53.596;9.960;2023-04-02T14:03:11;102417.81;;;8.01;nan
14343;BME280;7255;53.596;9.960;2023-04-02T14:05:43;102425.16;;;7.82;nan
14343;BME280;7255;53.596;9.960;2023-04-02T14:08:22;102422.63;;;7.81;nan
14343;BME280;7255;53.596;9.960;2023-04-02T14:11:00;102440.56;;;8.05;nan
14343;BME280;7255;53.596;9.960;2023-04-02T14:13:53;102437.38;;;8.26;nan
14343;BME280;7255;53.596;9.960;2023-04-02T14:16:35;102444.09;;;8.30;nan